sensor_id;sensor_type;location;lat;lon;timestamp;P1;durP1;ratioP1;P2;durP2;ratioP2
10399;SDS011;10031;51.180;17.168;2023-03-04T00:00:52;46.47;;;20.40;;
10399;SDS011;10031;51.180;17.168;2023-03-04T00:03:18;50.37;;;21.07;;
10399;SDS011;10031;51.180;17.168;2023-03-04T00:05:44;41.83;;;17.03;;
10399;SDS011;10031;51.180;17.168;2023-03-04T00:08:11;51.70;;;21.57;;
10399;SDS011;10031;51.180;17.168;2023-03-04T00:10:43;51.23;;;21.60;;
10399;SDS011;10031;51.180;17.168;2023-03-04T00:13:09;51.30;;;18.93;;
10399;SDS011;10031;51.180;17.168;2023-03-04T00:15:35;46.67;;;18.90;;
10399;SDS011;10031;51.180;17.168;2023-03-04T00:18:02;36.50;;;13.80;;
10399;SDS011;10031;51.180;17.168;2023-03-04T00:20:28;34.40;;;14.93;;
10399;SDS011;10031;51.180;17.168;2023-03-04T00:22:55;58.47;;;21.93;;
10399;SDS011;10031;51.180;17.168;2023-03-04T00:25:21;54.20;;;22.67;;
10399;SDS011;10031;51.180;17.168;2023-03-04T00:27:48;58.50;;;23.40;;
10399;SDS011;10031;51.180;17.168;2023-03-04T00:30:14;62.27;;;23.60;;
10399;SDS011;10031;51.180;17.168;2023-03-04T00:32:41;56.80;;;23.93;;
10399;SDS011;10031;51.180;17.168;2023-03-04T00:35:09;43.77;;;17.67;;
10399;SDS011;10031;51.180;17.168;2023-03-04T00:37:36;54.30;;;21.97;;
10399;SDS011;10031;51.180;17.168;2023-03-04T00:40:02;46.90;;;19.07;;
10399;SDS011;10031;51.180;17.168;2023-03-04T00:42:31;45.90;;;19.77;;
10399;SDS011;10031;51.180;17.168;2023-03-04T00:44:57;30.97;;;12.60;;
10399;SDS011;10031;51.180;17.168;2023-03-04T00:47:23;36.47;;;16.73;;
10399;SDS011;10031;51.180;17.168;2023-03-04T00:49:49;38.00;;;16.03;;
10399;SDS011;10031;51.180;17.168;2023-03-04T00:52:23;42.03;;;18.93;;
10399;SDS011;10031;51.180;17.168;2023-03-04T00:54:49;40.03;;;16.53;;
10399;SDS011;10031;51.180;17.168;2023-03-04T00:57:15;39.47;;;16.47;;
10399;SDS011;10031;51.180;17.168;2023-03-04T00:59:47;48.57;;;19.37;;
10399;SDS011;10031;51.180;17.168;2023-03-04T01:02:13;45.90;;;20.17;;
10399;SDS011;10031;51.180;17.168;2023-03-04T01:04:39;23.93;;;10.47;;
10399;SDS011;10031;51.180;17.168;2023-03-04T01:07:06;44.53;;;20.03;;
10399;SDS011;10031;51.180;17.168;2023-03-04T01:12:01;36.43;;;14.80;;
10399;SDS011;10031;51.180;17.168;2023-03-04T01:14:27;40.33;;;17.23;;
10399;SDS011;10031;51.180;17.168;2023-03-04T01:16:53;24.57;;;12.20;;
10399;SDS011;10031;51.180;17.168;2023-03-04T01:19:19;45.67;;;20.07;;
10399;SDS011;10031;51.180;17.168;2023-03-04T01:21:46;31.07;;;14.40;;
10399;SDS011;10031;51.180;17.168;2023-03-04T01:24:12;41.03;;;19.07;;
10399;SDS011;10031;51.180;17.168;2023-03-04T01:26:38;47.33;;;20.27;;
10399;SDS011;10031;51.180;17.168;2023-03-04T01:29:04;28.47;;;11.90;;
10399;SDS011;10031;51.180;17.168;2023-03-04T01:31:30;41.33;;;19.17;;
10399;SDS011;10031;51.180;17.168;2023-03-04T01:33:57;43.07;;;18.53;;
10399;SDS011;10031;51.180;17.168;2023-03-04T01:36:23;38.27;;;17.73;;
10399;SDS011;10031;51.180;17.168;2023-03-04T01:38:50;24.17;;;11.00;;
10399;SDS011;10031;51.180;17.168;2023-03-04T01:41:17;31.53;;;15.43;;
10399;SDS011;10031;51.180;17.168;2023-03-04T01:43:47;34.93;;;16.70;;
10399;SDS011;10031;51.180;17.168;2023-03-04T01:46:14;41.10;;;16.53;;
10399;SDS011;10031;51.180;17.168;2023-03-04T01:48:41;35.83;;;16.20;;
10399;SDS011;10031;51.180;17.168;2023-03-04T01:51:11;19.70;;;9.90;;
10399;SDS011;10031;51.180;17.168;2023-03-04T01:53:42;37.23;;;17.17;;
10399;SDS011;10031;51.180;17.168;2023-03-04T01:58:38;31.97;;;16.03;;
10399;SDS011;10031;51.180;17.168;2023-03-04T02:01:04;22.87;;;9.80;;
10399;SDS011;10031;51.180;17.168;2023-03-04T02:03:30;36.43;;;18.93;;
10399;SDS011;10031;51.180;17.168;2023-03-04T02:05:58;31.43;;;15.23;;
10399;SDS011;10031;51.180;17.168;2023-03-04T02:08:24;29.57;;;12.30;;
10399;SDS011;10031;51.180;17.168;2023-03-04T02:10:50;36.60;;;16.63;;
10399;SDS011;10031;51.180;17.168;2023-03-04T02:13:17;32.57;;;16.20;;
10399;SDS011;10031;51.180;17.168;2023-03-04T02:15:43;25.37;;;10.43;;
10399;SDS011;10031;51.180;17.168;2023-03-04T02:23:32;32.47;;;16.30;;
10399;SDS011;10031;51.180;17.168;2023-03-04T02:28:32;22.53;;;11.40;;
10399;SDS011;10031;51.180;17.168;2023-03-04T02:30:58;36.63;;;17.37;;
10399;SDS011;10031;51.180;17.168;2023-03-04T02:33:24;22.33;;;11.30;;
10399;SDS011;10031;51.180;17.168;2023-03-04T02:35:53;36.20;;;17.67;;
10399;SDS011;10031;51.180;17.168;2023-03-04T02:38:19;31.77;;;15.83;;
10399;SDS011;10031;51.180;17.168;2023-03-04T02:40:46;28.43;;;14.40;;
10399;SDS011;10031;51.180;17.168;2023-03-04T02:43:14;33.63;;;16.60;;
10399;SDS011;10031;51.180;17.168;2023-03-04T02:48:06;29.07;;;13.67;;
10399;SDS011;10031;51.180;17.168;2023-03-04T02:50:34;35.00;;;17.03;;
10399;SDS011;10031;51.180;17.168;2023-03-04T02:53:01;28.83;;;13.23;;
10399;SDS011;10031;51.180;17.168;2023-03-04T02:55:27;35.90;;;18.30;;
10399;SDS011;10031;51.180;17.168;2023-03-04T02:57:53;30.80;;;16.13;;
10399;SDS011;10031;51.180;17.168;2023-03-04T03:00:19;30.97;;;17.13;;
10399;SDS011;10031;51.180;17.168;2023-03-04T03:02:47;37.50;;;18.50;;
10399;SDS011;10031;51.180;17.168;2023-03-04T03:05:13;37.97;;;19.60;;
10399;SDS011;10031;51.180;17.168;2023-03-04T03:07:39;31.60;;;15.37;;
10399;SDS011;10031;51.180;17.168;2023-03-04T03:10:06;33.87;;;17.33;;
10399;SDS011;10031;51.180;17.168;2023-03-04T03:12:32;19.43;;;11.10;;
10399;SDS011;10031;51.180;17.168;2023-03-04T03:14:58;22.27;;;12.93;;
10399;SDS011;10031;51.180;17.168;2023-03-04T03:17:24;27.53;;;14.70;;
10399;SDS011;10031;51.180;17.168;2023-03-04T03:19:50;37.77;;;20.07;;
10399;SDS011;10031;51.180;17.168;2023-03-04T03:24:45;31.87;;;16.27;;
10399;SDS011;10031;51.180;17.168;2023-03-04T03:27:12;38.53;;;20.93;;
10399;SDS011;10031;51.180;17.168;2023-03-04T03:29:38;37.40;;;19.70;;
10399;SDS011;10031;51.180;17.168;2023-03-04T03:32:05;39.00;;;19.67;;
10399;SDS011;10031;51.180;17.168;2023-03-04T03:34:31;44.97;;;22.60;;
10399;SDS011;10031;51.180;17.168;2023-03-04T03:36:57;32.10;;;16.73;;
10399;SDS011;10031;51.180;17.168;2023-03-04T03:39:23;37.07;;;20.50;;
10399;SDS011;10031;51.180;17.168;2023-03-04T03:41:49;29.23;;;14.37;;
10399;SDS011;10031;51.180;17.168;2023-03-04T03:44:20;29.03;;;16.27;;
10399;SDS011;10031;51.180;17.168;2023-03-04T03:46:46;19.80;;;10.30;;
10399;SDS011;10031;51.180;17.168;2023-03-04T03:49:12;31.37;;;17.00;;
10399;SDS011;10031;51.180;17.168;2023-03-04T03:51:38;36.20;;;19.17;;
10399;SDS011;10031;51.180;17.168;2023-03-04T03:54:04;39.13;;;22.03;;
10399;SDS011;10031;51.180;17.168;2023-03-04T03:56:30;30.73;;;15.70;;
10399;SDS011;10031;51.180;17.168;2023-03-04T03:58:57;34.63;;;18.23;;
10399;SDS011;10031;51.180;17.168;2023-03-04T04:01:24;37.97;;;21.47;;
10399;SDS011;10031;51.180;17.168;2023-03-04T04:03:50;28.87;;;15.87;;
10399;SDS011;10031;51.180;17.168;2023-03-04T04:06:16;23.60;;;12.20;;
10399;SDS011;10031;51.180;17.168;2023-03-04T04:08:42;37.77;;;19.73;;
10399;SDS011;10031;51.180;17.168;2023-03-04T04:11:09;34.17;;;17.37;;
10399;SDS011;10031;51.180;17.168;2023-03-04T04:13:35;34.40;;;19.17;;
10399;SDS011;10031;51.180;17.168;2023-03-04T04:16:01;28.20;;;13.07;;
10399;SDS011;10031;51.180;17.168;2023-03-04T04:18:27;32.07;;;15.03;;
10399;SDS011;10031;51.180;17.168;2023-03-04T04:20:53;32.23;;;17.57;;
10399;SDS011;10031;51.180;17.168;2023-03-04T04:23:19;32.07;;;14.53;;
10399;SDS011;10031;51.180;17.168;2023-03-04T04:25:46;27.17;;;14.80;;
10399;SDS011;10031;51.180;17.168;2023-03-04T04:28:12;27.97;;;11.07;;
10399;SDS011;10031;51.180;17.168;2023-03-04T04:30:40;21.93;;;10.53;;
10399;SDS011;10031;51.180;17.168;2023-03-04T04:33:06;31.97;;;15.63;;
10399;SDS011;10031;51.180;17.168;2023-03-04T04:35:34;31.63;;;15.97;;
10399;SDS011;10031;51.180;17.168;2023-03-04T04:38:02;31.23;;;15.20;;
10399;SDS011;10031;51.180;17.168;2023-03-04T04:40:34;33.23;;;15.27;;
10399;SDS011;10031;51.180;17.168;2023-03-04T04:43:01;30.77;;;14.00;;
10399;SDS011;10031;51.180;17.168;2023-03-04T04:45:29;30.10;;;16.23;;
10399;SDS011;10031;51.180;17.168;2023-03-04T04:47:56;35.70;;;19.00;;
10399;SDS011;10031;51.180;17.168;2023-03-04T04:50:22;37.37;;;18.10;;
10399;SDS011;10031;51.180;17.168;2023-03-04T04:52:50;26.87;;;13.53;;
10399;SDS011;10031;51.180;17.168;2023-03-04T04:55:16;21.07;;;10.40;;
10399;SDS011;10031;51.180;17.168;2023-03-04T04:57:42;33.53;;;16.80;;
10399;SDS011;10031;51.180;17.168;2023-03-04T05:00:08;36.93;;;19.00;;
10399;SDS011;10031;51.180;17.168;2023-03-04T05:02:35;29.80;;;14.77;;
10399;SDS011;10031;51.180;17.168;2023-03-04T05:05:02;30.00;;;15.70;;
10399;SDS011;10031;51.180;17.168;2023-03-04T05:07:29;38.07;;;19.37;;
10399;SDS011;10031;51.180;17.168;2023-03-04T05:09:55;37.60;;;19.77;;
10399;SDS011;10031;51.180;17.168;2023-03-04T05:12:21;29.30;;;15.37;;
10399;SDS011;10031;51.180;17.168;2023-03-04T05:14:47;33.30;;;17.97;;
10399;SDS011;10031;51.180;17.168;2023-03-04T05:17:14;29.50;;;15.60;;
10399;SDS011;10031;51.180;17.168;2023-03-04T05:19:40;34.73;;;17.20;;
10399;SDS011;10031;51.180;17.168;2023-03-04T05:22:06;25.67;;;13.37;;
10399;SDS011;10031;51.180;17.168;2023-03-04T05:24:32;33.10;;;17.20;;
10399;SDS011;10031;51.180;17.168;2023-03-04T05:27:00;39.80;;;20.13;;
10399;SDS011;10031;51.180;17.168;2023-03-04T05:29:26;29.23;;;15.13;;
10399;SDS011;10031;51.180;17.168;2023-03-04T05:31:53;26.03;;;13.80;;
10399;SDS011;10031;51.180;17.168;2023-03-04T05:34:19;29.20;;;14.07;;
10399;SDS011;10031;51.180;17.168;2023-03-04T05:36:45;32.50;;;17.13;;
10399;SDS011;10031;51.180;17.168;2023-03-04T05:39:11;34.63;;;18.00;;
10399;SDS011;10031;51.180;17.168;2023-03-04T05:41:37;31.07;;;15.87;;
10399;SDS011;10031;51.180;17.168;2023-03-04T05:44:04;21.97;;;11.07;;
10399;SDS011;10031;51.180;17.168;2023-03-04T05:46:31;24.57;;;13.00;;
10399;SDS011;10031;51.180;17.168;2023-03-04T05:48:57;26.80;;;14.17;;
10399;SDS011;10031;51.180;17.168;2023-03-04T05:51:24;30.03;;;15.47;;
10399;SDS011;10031;51.180;17.168;2023-03-04T05:53:50;25.67;;;14.40;;
10399;SDS011;10031;51.180;17.168;2023-03-04T05:56:17;21.50;;;9.47;;
10399;SDS011;10031;51.180;17.168;2023-03-04T05:58:44;19.80;;;10.10;;
10399;SDS011;10031;51.180;17.168;2023-03-04T06:01:17;29.60;;;11.87;;
10399;SDS011;10031;51.180;17.168;2023-03-04T06:03:43;26.33;;;13.83;;
10399;SDS011;10031;51.180;17.168;2023-03-04T06:06:12;27.37;;;15.17;;
10399;SDS011;10031;51.180;17.168;2023-03-04T06:08:38;29.43;;;16.77;;
10399;SDS011;10031;51.180;17.168;2023-03-04T06:11:04;19.17;;;11.27;;
10399;SDS011;10031;51.180;17.168;2023-03-04T06:13:31;25.40;;;12.70;;
10399;SDS011;10031;51.180;17.168;2023-03-04T06:15:57;21.07;;;10.80;;
10399;SDS011;10031;51.180;17.168;2023-03-04T06:18:24;22.63;;;12.87;;
10399;SDS011;10031;51.180;17.168;2023-03-04T06:20:54;22.67;;;10.93;;
10399;SDS011;10031;51.180;17.168;2023-03-04T06:23:21;25.63;;;14.87;;
10399;SDS011;10031;51.180;17.168;2023-03-04T06:25:50;24.20;;;12.53;;
10399;SDS011;10031;51.180;17.168;2023-03-04T06:28:16;24.73;;;11.77;;
10399;SDS011;10031;51.180;17.168;2023-03-04T06:30:42;22.27;;;12.23;;
10399;SDS011;10031;51.180;17.168;2023-03-04T06:33:13;19.43;;;10.70;;
10399;SDS011;10031;51.180;17.168;2023-03-04T06:35:39;17.80;;;9.50;;
10399;SDS011;10031;51.180;17.168;2023-03-04T06:38:05;25.77;;;13.63;;
10399;SDS011;10031;51.180;17.168;2023-03-04T06:40:31;21.50;;;12.30;;
10399;SDS011;10031;51.180;17.168;2023-03-04T06:42:59;26.90;;;14.70;;
10399;SDS011;10031;51.180;17.168;2023-03-04T06:45:25;16.57;;;9.60;;
10399;SDS011;10031;51.180;17.168;2023-03-04T06:47:51;22.67;;;9.70;;
10399;SDS011;10031;51.180;17.168;2023-03-04T06:50:17;19.70;;;11.27;;
10399;SDS011;10031;51.180;17.168;2023-03-04T06:52:43;21.57;;;10.10;;
10399;SDS011;10031;51.180;17.168;2023-03-04T06:55:09;18.80;;;10.27;;
10399;SDS011;10031;51.180;17.168;2023-03-04T06:57:37;21.03;;;11.33;;
10399;SDS011;10031;51.180;17.168;2023-03-04T07:00:03;24.07;;;11.80;;
10399;SDS011;10031;51.180;17.168;2023-03-04T07:02:30;16.40;;;9.67;;
10399;SDS011;10031;51.180;17.168;2023-03-04T07:04:56;25.50;;;12.70;;
10399;SDS011;10031;51.180;17.168;2023-03-04T07:07:22;15.13;;;8.70;;
10399;SDS011;10031;51.180;17.168;2023-03-04T07:09:50;22.43;;;9.30;;
10399;SDS011;10031;51.180;17.168;2023-03-04T07:12:17;19.13;;;11.07;;
10399;SDS011;10031;51.180;17.168;2023-03-04T07:14:43;24.67;;;11.53;;
10399;SDS011;10031;51.180;17.168;2023-03-04T07:17:11;16.43;;;10.10;;
10399;SDS011;10031;51.180;17.168;2023-03-04T07:19:38;21.00;;;11.47;;
10399;SDS011;10031;51.180;17.168;2023-03-04T07:22:07;21.50;;;12.53;;
10399;SDS011;10031;51.180;17.168;2023-03-04T07:24:39;26.73;;;11.47;;
10399;SDS011;10031;51.180;17.168;2023-03-04T07:27:05;15.47;;;8.57;;
10399;SDS011;10031;51.180;17.168;2023-03-04T07:29:31;24.03;;;11.27;;
10399;SDS011;10031;51.180;17.168;2023-03-04T07:31:57;21.60;;;11.17;;
10399;SDS011;10031;51.180;17.168;2023-03-04T07:34:23;18.77;;;10.57;;
10399;SDS011;10031;51.180;17.168;2023-03-04T07:36:49;19.73;;;10.17;;
10399;SDS011;10031;51.180;17.168;2023-03-04T07:39:15;15.70;;;8.33;;
10399;SDS011;10031;51.180;17.168;2023-03-04T07:41:41;18.80;;;10.57;;
10399;SDS011;10031;51.180;17.168;2023-03-04T07:44:09;19.90;;;10.07;;
10399;SDS011;10031;51.180;17.168;2023-03-04T07:46:37;23.67;;;10.90;;
10399;SDS011;10031;51.180;17.168;2023-03-04T07:49:03;26.23;;;12.50;;
10399;SDS011;10031;51.180;17.168;2023-03-04T07:51:29;14.60;;;7.47;;
10399;SDS011;10031;51.180;17.168;2023-03-04T07:53:56;18.93;;;9.27;;
10399;SDS011;10031;51.180;17.168;2023-03-04T07:56:24;20.60;;;10.60;;
10399;SDS011;10031;51.180;17.168;2023-03-04T07:58:51;20.90;;;10.93;;
10399;SDS011;10031;51.180;17.168;2023-03-04T08:01:30;18.37;;;9.60;;
10399;SDS011;10031;51.180;17.168;2023-03-04T08:03:57;19.17;;;9.33;;
10399;SDS011;10031;51.180;17.168;2023-03-04T08:06:23;22.80;;;9.90;;
10399;SDS011;10031;51.180;17.168;2023-03-04T08:08:54;18.40;;;10.93;;
10399;SDS011;10031;51.180;17.168;2023-03-04T08:11:21;19.57;;;11.00;;
10399;SDS011;10031;51.180;17.168;2023-03-04T08:13:47;22.03;;;10.67;;
10399;SDS011;10031;51.180;17.168;2023-03-04T08:16:15;20.70;;;8.57;;
10399;SDS011;10031;51.180;17.168;2023-03-04T08:18:42;20.73;;;9.83;;
10399;SDS011;10031;51.180;17.168;2023-03-04T08:21:11;24.43;;;11.17;;
10399;SDS011;10031;51.180;17.168;2023-03-04T08:23:38;20.90;;;11.07;;
10399;SDS011;10031;51.180;17.168;2023-03-04T08:26:07;24.83;;;12.07;;
10399;SDS011;10031;51.180;17.168;2023-03-04T08:28:34;18.63;;;9.97;;
10399;SDS011;10031;51.180;17.168;2023-03-04T08:31:01;20.93;;;10.43;;
10399;SDS011;10031;51.180;17.168;2023-03-04T08:33:27;21.47;;;12.27;;
10399;SDS011;10031;51.180;17.168;2023-03-04T08:35:53;24.00;;;11.73;;
10399;SDS011;10031;51.180;17.168;2023-03-04T08:38:19;21.53;;;11.43;;
10399;SDS011;10031;51.180;17.168;2023-03-04T08:40:50;22.43;;;12.63;;
10399;SDS011;10031;51.180;17.168;2023-03-04T08:43:17;21.03;;;9.20;;
10399;SDS011;10031;51.180;17.168;2023-03-04T08:45:43;24.67;;;10.47;;
10399;SDS011;10031;51.180;17.168;2023-03-04T08:48:09;21.80;;;10.57;;
10399;SDS011;10031;51.180;17.168;2023-03-04T08:50:36;26.53;;;13.80;;
10399;SDS011;10031;51.180;17.168;2023-03-04T08:53:02;25.67;;;12.40;;
10399;SDS011;10031;51.180;17.168;2023-03-04T08:55:28;19.83;;;9.30;;
10399;SDS011;10031;51.180;17.168;2023-03-04T08:57:55;33.80;;;17.20;;
10399;SDS011;10031;51.180;17.168;2023-03-04T09:00:21;36.53;;;17.23;;
10399;SDS011;10031;51.180;17.168;2023-03-04T09:02:48;27.70;;;13.17;;
10399;SDS011;10031;51.180;17.168;2023-03-04T09:05:14;24.53;;;10.40;;
10399;SDS011;10031;51.180;17.168;2023-03-04T09:07:40;24.60;;;13.00;;
10399;SDS011;10031;51.180;17.168;2023-03-04T09:10:07;30.77;;;14.17;;
10399;SDS011;10031;51.180;17.168;2023-03-04T09:12:33;31.67;;;16.00;;
10399;SDS011;10031;51.180;17.168;2023-03-04T09:14:59;28.30;;;16.17;;
10399;SDS011;10031;51.180;17.168;2023-03-04T09:17:27;29.40;;;13.97;;
10399;SDS011;10031;51.180;17.168;2023-03-04T09:19:53;20.97;;;11.90;;
10399;SDS011;10031;51.180;17.168;2023-03-04T09:22:19;24.77;;;12.70;;
10399;SDS011;10031;51.180;17.168;2023-03-04T09:24:45;19.67;;;11.87;;
10399;SDS011;10031;51.180;17.168;2023-03-04T09:27:12;25.77;;;14.53;;
10399;SDS011;10031;51.180;17.168;2023-03-04T09:29:38;25.77;;;13.63;;
10399;SDS011;10031;51.180;17.168;2023-03-04T09:32:04;25.97;;;13.87;;
10399;SDS011;10031;51.180;17.168;2023-03-04T09:34:30;25.47;;;13.27;;
10399;SDS011;10031;51.180;17.168;2023-03-04T09:36:56;22.47;;;11.93;;
10399;SDS011;10031;51.180;17.168;2023-03-04T09:39:24;20.23;;;9.47;;
10399;SDS011;10031;51.180;17.168;2023-03-04T09:41:55;16.70;;;9.73;;
10399;SDS011;10031;51.180;17.168;2023-03-04T09:44:33;17.43;;;9.10;;
10399;SDS011;10031;51.180;17.168;2023-03-04T09:47:19;23.17;;;12.80;;
10399;SDS011;10031;51.180;17.168;2023-03-04T09:49:54;25.17;;;12.40;;
10399;SDS011;10031;51.180;17.168;2023-03-04T09:55:18;20.90;;;10.50;;
10399;SDS011;10031;51.180;17.168;2023-03-04T10:00:42;21.40;;;10.00;;
10399;SDS011;10031;51.180;17.168;2023-03-04T10:05:48;20.87;;;11.73;;
10399;SDS011;10031;51.180;17.168;2023-03-04T10:11:02;17.27;;;9.93;;
10399;SDS011;10031;51.180;17.168;2023-03-04T10:13:32;20.10;;;11.57;;
10399;SDS011;10031;51.180;17.168;2023-03-04T10:16:01;24.10;;;11.60;;
10399;SDS011;10031;51.180;17.168;2023-03-04T10:21:21;17.30;;;9.47;;
10399;SDS011;10031;51.180;17.168;2023-03-04T10:23:48;22.57;;;11.40;;
10399;SDS011;10031;51.180;17.168;2023-03-04T10:26:16;22.83;;;11.10;;
10399;SDS011;10031;51.180;17.168;2023-03-04T10:28:45;19.50;;;11.53;;
10399;SDS011;10031;51.180;17.168;2023-03-04T10:31:18;16.00;;;10.53;;
10399;SDS011;10031;51.180;17.168;2023-03-04T10:33:47;22.40;;;11.13;;
10399;SDS011;10031;51.180;17.168;2023-03-04T10:38:49;19.67;;;11.30;;
10399;SDS011;10031;51.180;17.168;2023-03-04T10:41:22;11.67;;;5.90;;
10399;SDS011;10031;51.180;17.168;2023-03-04T10:43:59;17.27;;;10.83;;
10399;SDS011;10031;51.180;17.168;2023-03-04T10:46:26;16.87;;;9.03;;
10399;SDS011;10031;51.180;17.168;2023-03-04T10:48:52;18.27;;;9.93;;
10399;SDS011;10031;51.180;17.168;2023-03-04T10:51:23;16.93;;;8.77;;
10399;SDS011;10031;51.180;17.168;2023-03-04T10:53:50;15.77;;;8.17;;
10399;SDS011;10031;51.180;17.168;2023-03-04T10:56:30;19.90;;;9.83;;
10399;SDS011;10031;51.180;17.168;2023-03-04T11:01:42;15.93;;;10.20;;
10399;SDS011;10031;51.180;17.168;2023-03-04T11:04:16;13.47;;;6.77;;
10399;SDS011;10031;51.180;17.168;2023-03-04T11:06:42;13.93;;;6.83;;
10399;SDS011;10031;51.180;17.168;2023-03-04T11:09:19;15.67;;;10.47;;
10399;SDS011;10031;51.180;17.168;2023-03-04T11:11:46;20.63;;;10.53;;
10399;SDS011;10031;51.180;17.168;2023-03-04T11:16:40;17.53;;;9.57;;
10399;SDS011;10031;51.180;17.168;2023-03-04T11:19:18;14.40;;;8.47;;
10399;SDS011;10031;51.180;17.168;2023-03-04T11:21:46;11.43;;;7.20;;
10399;SDS011;10031;51.180;17.168;2023-03-04T11:24:14;9.03;;;5.47;;
10399;SDS011;10031;51.180;17.168;2023-03-04T11:26:44;8.57;;;4.33;;
10399;SDS011;10031;51.180;17.168;2023-03-04T11:31:44;12.63;;;7.33;;
10399;SDS011;10031;51.180;17.168;2023-03-04T11:37:02;12.00;;;7.27;;
10399;SDS011;10031;51.180;17.168;2023-03-04T11:39:36;8.87;;;6.00;;
10399;SDS011;10031;51.180;17.168;2023-03-04T11:44:38;12.13;;;5.93;;
10399;SDS011;10031;51.180;17.168;2023-03-04T11:59:59;10.87;;;6.13;;
10399;SDS011;10031;51.180;17.168;2023-03-04T12:02:31;14.87;;;7.50;;
10399;SDS011;10031;51.180;17.168;2023-03-04T12:07:37;9.43;;;5.00;;
10399;SDS011;10031;51.180;17.168;2023-03-04T12:12:53;12.43;;;7.10;;
10399;SDS011;10031;51.180;17.168;2023-03-04T12:20:38;13.83;;;7.50;;
10399;SDS011;10031;51.180;17.168;2023-03-04T12:23:19;13.07;;;7.47;;
10399;SDS011;10031;51.180;17.168;2023-03-04T12:38:52;10.77;;;5.77;;
10399;SDS011;10031;51.180;17.168;2023-03-04T12:46:34;7.97;;;4.23;;
10399;SDS011;10031;51.180;17.168;2023-03-04T12:51:53;13.70;;;7.17;;
10399;SDS011;10031;51.180;17.168;2023-03-04T12:59:35;9.97;;;5.60;;
10399;SDS011;10031;51.180;17.168;2023-03-04T13:05:07;7.23;;;5.30;;
10399;SDS011;10031;51.180;17.168;2023-03-04T13:10:25;9.77;;;5.93;;
10399;SDS011;10031;51.180;17.168;2023-03-04T13:12:58;9.77;;;5.17;;
10399;SDS011;10031;51.180;17.168;2023-03-04T13:17:51;11.33;;;5.03;;
10399;SDS011;10031;51.180;17.168;2023-03-04T13:25:33;10.43;;;6.60;;
10399;SDS011;10031;51.180;17.168;2023-03-04T13:41:20;8.93;;;6.07;;
10399;SDS011;10031;51.180;17.168;2023-03-04T13:43:55;9.80;;;5.93;;
10399;SDS011;10031;51.180;17.168;2023-03-04T13:56:38;7.87;;;4.60;;
10399;SDS011;10031;51.180;17.168;2023-03-04T14:04:10;8.30;;;5.77;;
10399;SDS011;10031;51.180;17.168;2023-03-04T14:06:47;8.73;;;5.17;;
10399;SDS011;10031;51.180;17.168;2023-03-04T14:09:25;8.27;;;5.57;;
10399;SDS011;10031;51.180;17.168;2023-03-04T14:11:52;10.63;;;7.03;;
10399;SDS011;10031;51.180;17.168;2023-03-04T14:14:33;8.07;;;5.53;;
10399;SDS011;10031;51.180;17.168;2023-03-04T14:17:02;9.47;;;5.83;;
10399;SDS011;10031;51.180;17.168;2023-03-04T14:19:34;9.33;;;4.90;;
10399;SDS011;10031;51.180;17.168;2023-03-04T14:22:02;9.03;;;6.73;;
10399;SDS011;10031;51.180;17.168;2023-03-04T14:24:29;9.73;;;5.97;;
10399;SDS011;10031;51.180;17.168;2023-03-04T14:27:12;9.87;;;6.30;;
10399;SDS011;10031;51.180;17.168;2023-03-04T14:29:38;11.30;;;6.43;;
10399;SDS011;10031;51.180;17.168;2023-03-04T14:32:05;10.87;;;6.23;;
10399;SDS011;10031;51.180;17.168;2023-03-04T14:34:33;11.07;;;5.40;;
10399;SDS011;10031;51.180;17.168;2023-03-04T14:37:00;10.37;;;6.90;;
10399;SDS011;10031;51.180;17.168;2023-03-04T14:39:30;11.37;;;6.23;;
10399;SDS011;10031;51.180;17.168;2023-03-04T14:41:58;11.27;;;6.37;;
10399;SDS011;10031;51.180;17.168;2023-03-04T14:44:33;13.53;;;7.40;;
10399;SDS011;10031;51.180;17.168;2023-03-04T14:47:22;8.83;;;5.60;;
10399;SDS011;10031;51.180;17.168;2023-03-04T14:49:50;5.40;;;3.67;;
10399;SDS011;10031;51.180;17.168;2023-03-04T14:52:28;8.70;;;4.77;;
10399;SDS011;10031;51.180;17.168;2023-03-04T14:57:40;7.33;;;3.70;;
10399;SDS011;10031;51.180;17.168;2023-03-04T15:00:15;5.70;;;3.17;;
10399;SDS011;10031;51.180;17.168;2023-03-04T15:02:42;8.40;;;4.17;;
10399;SDS011;10031;51.180;17.168;2023-03-04T15:05:17;10.77;;;4.30;;
10399;SDS011;10031;51.180;17.168;2023-03-04T15:07:48;4.27;;;2.90;;
10399;SDS011;10031;51.180;17.168;2023-03-04T15:10:18;9.67;;;4.87;;
10399;SDS011;10031;51.180;17.168;2023-03-04T15:12:52;6.10;;;4.00;;
10399;SDS011;10031;51.180;17.168;2023-03-04T15:18:14;9.90;;;4.70;;
10399;SDS011;10031;51.180;17.168;2023-03-04T15:20:41;6.10;;;3.53;;
10399;SDS011;10031;51.180;17.168;2023-03-04T15:23:16;9.37;;;4.77;;
10399;SDS011;10031;51.180;17.168;2023-03-04T15:25:43;11.87;;;4.60;;
10399;SDS011;10031;51.180;17.168;2023-03-04T15:28:18;12.23;;;4.97;;
10399;SDS011;10031;51.180;17.168;2023-03-04T15:30:45;7.73;;;4.90;;
10399;SDS011;10031;51.180;17.168;2023-03-04T15:33:11;7.90;;;4.50;;
10399;SDS011;10031;51.180;17.168;2023-03-04T15:35:39;11.30;;;4.80;;
10399;SDS011;10031;51.180;17.168;2023-03-04T15:38:06;10.03;;;4.77;;
10399;SDS011;10031;51.180;17.168;2023-03-04T15:40:36;9.03;;;4.97;;
10399;SDS011;10031;51.180;17.168;2023-03-04T15:43:03;10.27;;;5.50;;
10399;SDS011;10031;51.180;17.168;2023-03-04T15:47:59;4.87;;;3.40;;
10399;SDS011;10031;51.180;17.168;2023-03-04T15:50:28;13.67;;;5.27;;
10399;SDS011;10031;51.180;17.168;2023-03-04T15:52:58;13.17;;;5.13;;
10399;SDS011;10031;51.180;17.168;2023-03-04T15:55:26;6.30;;;3.50;;
10399;SDS011;10031;51.180;17.168;2023-03-04T15:57:53;7.10;;;3.70;;
10399;SDS011;10031;51.180;17.168;2023-03-04T16:00:20;11.63;;;5.20;;
10399;SDS011;10031;51.180;17.168;2023-03-04T16:02:46;11.57;;;5.30;;
10399;SDS011;10031;51.180;17.168;2023-03-04T16:05:12;10.33;;;4.90;;
10399;SDS011;10031;51.180;17.168;2023-03-04T16:07:39;8.80;;;4.50;;
10399;SDS011;10031;51.180;17.168;2023-03-04T16:12:44;13.13;;;4.93;;
10399;SDS011;10031;51.180;17.168;2023-03-04T16:15:12;9.93;;;3.93;;
10399;SDS011;10031;51.180;17.168;2023-03-04T16:17:38;10.10;;;4.47;;
10399;SDS011;10031;51.180;17.168;2023-03-04T16:20:09;8.30;;;4.20;;
10399;SDS011;10031;51.180;17.168;2023-03-04T16:22:35;9.90;;;4.80;;
10399;SDS011;10031;51.180;17.168;2023-03-04T16:25:02;6.93;;;4.23;;
10399;SDS011;10031;51.180;17.168;2023-03-04T16:27:28;13.03;;;4.33;;
10399;SDS011;10031;51.180;17.168;2023-03-04T16:29:54;5.33;;;3.60;;
10399;SDS011;10031;51.180;17.168;2023-03-04T16:32:24;9.07;;;4.10;;
10399;SDS011;10031;51.180;17.168;2023-03-04T16:34:50;7.77;;;4.07;;
10399;SDS011;10031;51.180;17.168;2023-03-04T16:37:17;12.27;;;4.60;;
10399;SDS011;10031;51.180;17.168;2023-03-04T16:39:44;7.50;;;4.10;;
10399;SDS011;10031;51.180;17.168;2023-03-04T16:42:19;10.03;;;4.40;;
10399;SDS011;10031;51.180;17.168;2023-03-04T16:44:49;9.73;;;4.13;;
10399;SDS011;10031;51.180;17.168;2023-03-04T16:47:15;10.70;;;4.30;;
10399;SDS011;10031;51.180;17.168;2023-03-04T16:49:42;6.43;;;4.17;;